createdAt,value
2018-05-03T00:00:29.105Z,10.00
2018-05-03T00:01:04.470Z,8.90
2018-05-03T00:01:39.767Z,8.70
2018-05-03T00:02:15.212Z,10.90
2018-05-03T00:02:50.639Z,9.40
2018-05-03T00:03:25.761Z,9.40
2018-05-03T00:04:01.381Z,10.30
2018-05-03T00:04:36.860Z,11.40
2018-05-03T00:05:12.314Z,11.20
2018-05-03T00:05:47.542Z,10.90
2018-05-03T00:06:22.650Z,11.30
2018-05-03T00:06:58.100Z,10.90
2018-05-03T00:07:33.544Z,8.10
2018-05-03T00:08:09.421Z,9.80
2018-05-03T00:08:44.501Z,10.10
2018-05-03T00:09:20.065Z,7.80
2018-05-03T00:09:55.483Z,8.90
2018-05-03T00:10:31.067Z,11.10
2018-05-03T00:11:06.674Z,14.60
2018-05-03T00:11:42.715Z,11.90
2018-05-03T00:12:18.536Z,10.40
2018-05-03T00:12:54.077Z,11.40
2018-05-03T00:13:29.390Z,12.00
2018-05-03T00:14:04.427Z,9.50
2018-05-03T00:14:40.125Z,10.70
2018-05-03T00:15:15.580Z,12.50
2018-05-03T00:15:50.986Z,9.60
2018-05-03T00:16:26.324Z,8.90
2018-05-03T00:17:01.773Z,10.50
2018-05-03T00:17:37.087Z,10.20
2018-05-03T00:18:12.485Z,10.40
2018-05-03T00:18:47.973Z,11.50
2018-05-03T00:19:23.388Z,11.40
2018-05-03T00:19:58.930Z,10.30
2018-05-03T00:20:34.595Z,8.60
2018-05-03T00:21:10.616Z,9.10
2018-05-03T00:21:46.074Z,12.60
2018-05-03T00:22:21.235Z,12.90
2018-05-03T00:22:56.657Z,11.10
2018-05-03T00:23:32.071Z,8.10
2018-05-03T00:24:07.198Z,10.20
2018-05-03T00:24:43.720Z,9.70
2018-05-03T00:25:18.980Z,8.30
2018-05-03T00:25:54.308Z,11.10
2018-05-03T00:26:29.464Z,9.60
2018-05-03T00:27:04.990Z,9.30
2018-05-03T00:27:40.518Z,14.10
2018-05-03T00:28:16.370Z,13.60
2018-05-03T00:28:51.803Z,13.50
2018-05-03T00:29:27.119Z,10.90
2018-05-03T00:30:02.870Z,12.00
2018-05-03T00:30:38.996Z,12.00
2018-05-03T00:31:14.377Z,9.50
2018-05-03T00:31:49.592Z,8.20
2018-05-03T00:32:24.729Z,10.00
2018-05-03T00:32:59.810Z,10.00
2018-05-03T00:33:35.080Z,9.00
2018-05-03T00:34:10.315Z,9.20
2018-05-03T00:34:45.574Z,9.20
2018-05-03T00:35:21.104Z,9.60
2018-05-03T00:35:56.575Z,12.00
2018-05-03T00:36:32.404Z,11.10
2018-05-03T00:37:07.737Z,10.30
2018-05-03T00:37:43.058Z,11.10
2018-05-03T00:38:18.188Z,9.30
2018-05-03T00:38:53.388Z,9.50
2018-05-03T00:39:28.825Z,10.90
2018-05-03T00:40:04.030Z,13.80
2018-05-03T00:40:42.185Z,10.70
2018-05-03T00:41:17.617Z,10.10
2018-05-03T00:41:53.067Z,9.60
2018-05-03T00:42:28.270Z,9.70
2018-05-03T00:43:03.739Z,8.90
2018-05-03T00:43:39.531Z,10.30
2018-05-03T00:44:15.061Z,12.10
2018-05-03T00:44:52.544Z,11.20
2018-05-03T00:45:28.058Z,9.20
2018-05-03T00:46:03.299Z,11.20
2018-05-03T00:46:39.118Z,9.70
2018-05-03T00:47:14.522Z,10.10
2018-05-03T00:47:49.853Z,10.80
2018-05-03T00:48:25.098Z,9.80
2018-05-03T00:49:00.340Z,8.30
2018-05-03T00:49:35.933Z,9.00
2018-05-03T00:50:11.312Z,9.00
2018-05-03T00:50:47.367Z,9.60
2018-05-03T00:51:22.778Z,10.50
2018-05-03T00:51:58.014Z,11.40
2018-05-03T00:52:33.208Z,9.70
2018-05-03T00:53:08.648Z,10.10
2018-05-03T00:53:44.352Z,9.60
2018-05-03T00:54:19.689Z,8.10
2018-05-03T00:54:54.958Z,9.90
2018-05-03T00:55:30.679Z,9.30
2018-05-03T00:56:07.960Z,11.00
2018-05-03T00:56:43.269Z,10.30
2018-05-03T00:57:18.501Z,9.60
2018-05-03T00:57:53.941Z,9.40
2018-05-03T00:58:29.167Z,11.00
2018-05-03T00:59:04.281Z,13.70
2018-05-03T00:59:39.353Z,12.90
2018-05-03T01:00:14.700Z,13.70
2018-05-03T01:00:54.006Z,12.00
2018-05-03T01:01:29.108Z,11.40
2018-05-03T01:02:04.856Z,13.30
2018-05-03T01:02:40.153Z,12.40
2018-05-03T01:03:15.585Z,9.00
2018-05-03T01:03:51.017Z,11.20
2018-05-03T01:04:26.242Z,11.00
2018-05-03T01:05:01.777Z,9.20
2018-05-03T01:05:37.114Z,10.70
2018-05-03T01:06:16.599Z,8.80
2018-05-03T01:06:51.790Z,11.00
2018-05-03T01:07:27.057Z,9.90
2018-05-03T01:08:02.548Z,9.00
2018-05-03T01:08:38.101Z,10.00
2018-05-03T01:09:13.412Z,9.80
2018-05-03T01:09:48.653Z,11.50
2018-05-03T01:10:24.694Z,11.00
2018-05-03T01:11:00.500Z,8.50
2018-05-03T01:11:35.726Z,8.60
2018-05-03T01:12:11.054Z,8.40
2018-05-03T01:12:46.217Z,10.80
2018-05-03T01:13:21.652Z,9.90
2018-05-03T01:13:59.120Z,9.70
2018-05-03T01:14:34.417Z,9.60
2018-05-03T01:15:09.784Z,9.30
2018-05-03T01:15:45.209Z,14.70
2018-05-03T01:16:20.410Z,16.80
2018-05-03T01:16:56.097Z,12.40
2018-05-03T01:17:31.317Z,10.60
2018-05-03T01:18:06.841Z,10.60
2018-05-03T01:18:44.778Z,11.80
2018-05-03T01:19:23.990Z,10.90
2018-05-03T01:19:59.631Z,12.00
2018-05-03T01:20:34.767Z,11.50
2018-05-03T01:21:10.179Z,9.30
2018-05-03T01:21:48.747Z,10.90
2018-05-03T01:22:24.604Z,13.50
2018-05-03T01:22:59.732Z,13.90
2018-05-03T01:23:34.960Z,11.40
2018-05-03T01:24:13.492Z,13.70
2018-05-03T01:24:48.704Z,15.00
2018-05-03T01:25:24.060Z,11.60
2018-05-03T01:25:59.308Z,13.90
2018-05-03T01:26:35.969Z,12.40
2018-05-03T01:27:11.520Z,11.20
2018-05-03T01:27:46.933Z,11.20
2018-05-03T01:28:22.361Z,11.10
2018-05-03T01:28:57.838Z,12.40
2018-05-03T01:29:33.369Z,12.10
2018-05-03T01:30:08.742Z,11.00
2018-05-03T01:30:44.582Z,11.00
2018-05-03T01:31:22.905Z,9.10
2018-05-03T01:31:58.101Z,12.40
2018-05-03T01:32:36.113Z,16.10
2018-05-03T01:33:11.813Z,11.70
2018-05-03T01:33:47.018Z,9.60
2018-05-03T01:34:22.330Z,8.80
2018-05-03T01:34:57.757Z,9.20
2018-05-03T01:35:32.856Z,12.30
2018-05-03T01:36:08.516Z,12.80
2018-05-03T01:36:47.504Z,12.60
2018-05-03T01:37:24.226Z,12.80
2018-05-03T01:37:59.657Z,11.20
2018-05-03T01:38:34.891Z,13.10
2018-05-03T01:39:10.201Z,10.60
2018-05-03T01:39:51.029Z,9.70
2018-05-03T01:40:28.344Z,13.20
2018-05-03T01:41:06.753Z,13.40
2018-05-03T01:41:41.994Z,13.40
2018-05-03T01:42:17.399Z,9.60
2018-05-03T01:42:52.641Z,13.10
2018-05-03T01:43:27.869Z,12.80
2018-05-03T01:44:03.090Z,11.90
2018-05-03T01:44:41.598Z,12.80
2018-05-03T01:45:17.228Z,14.10
2018-05-03T01:45:52.597Z,13.10
2018-05-03T01:46:27.931Z,13.00
2018-05-03T01:47:06.174Z,13.30
2018-05-03T01:47:42.875Z,14.50
2018-05-03T01:48:19.754Z,14.10
2018-05-03T01:49:02.190Z,12.30
2018-05-03T01:49:37.709Z,11.00
2018-05-03T01:50:12.892Z,14.10
2018-05-03T01:50:48.507Z,11.00
2018-05-03T01:51:23.911Z,10.70
2018-05-03T01:51:59.226Z,12.90
2018-05-03T01:52:34.411Z,13.30
2018-05-03T01:53:12.834Z,14.90
2018-05-03T01:53:48.486Z,14.40
2018-05-03T01:54:23.724Z,10.30
2018-05-03T01:55:03.553Z,10.10
2018-05-03T01:55:38.852Z,10.80
2018-05-03T01:56:14.456Z,13.40
2018-05-03T01:56:49.789Z,12.50
2018-05-03T01:57:25.102Z,12.10
2018-05-03T01:58:00.699Z,11.30
2018-05-03T01:58:36.112Z,12.10
2018-05-03T01:59:11.513Z,13.40
2018-05-03T01:59:46.890Z,12.00
2018-05-03T02:00:22.545Z,11.50
2018-05-03T02:00:57.750Z,12.00
2018-05-03T02:01:33.267Z,13.20
2018-05-03T02:02:09.463Z,14.50
2018-05-03T02:02:47.684Z,13.00
2018-05-03T02:03:22.895Z,10.00
2018-05-03T02:03:58.512Z,12.30
2018-05-03T02:04:33.731Z,13.30
2018-05-03T02:05:11.383Z,14.70
2018-05-03T02:05:47.407Z,15.70
2018-05-03T02:06:22.646Z,13.60
2018-05-03T02:06:58.020Z,9.50
2018-05-03T02:07:33.332Z,10.00
2018-05-03T02:08:08.934Z,14.00
2018-05-03T02:08:44.306Z,13.90
2018-05-03T02:09:19.527Z,13.60
2018-05-03T02:09:54.661Z,12.90
2018-05-03T02:10:29.869Z,12.80
2018-05-03T02:11:05.179Z,13.30
2018-05-03T02:11:40.970Z,13.50
2018-05-03T02:12:16.488Z,11.30
2018-05-03T02:12:51.790Z,9.90
2018-05-03T02:13:27.417Z,11.80
2018-05-03T02:14:02.861Z,11.80
2018-05-03T02:14:38.063Z,13.60
2018-05-03T02:15:13.313Z,12.80
2018-05-03T02:15:48.794Z,15.10
2018-05-03T02:16:24.024Z,15.50
2018-05-03T02:16:59.315Z,12.90
2018-05-03T02:17:34.426Z,11.50
2018-05-03T02:18:09.915Z,13.30
2018-05-03T02:18:45.528Z,15.90
2018-05-03T02:19:20.717Z,18.70
2018-05-03T02:19:56.028Z,17.40
2018-05-03T02:20:31.255Z,12.80
2018-05-03T02:21:06.470Z,12.80
2018-05-03T02:21:41.753Z,16.10
2018-05-03T02:22:17.362Z,16.10
2018-05-03T02:22:52.802Z,13.00
2018-05-03T02:23:28.118Z,13.00
2018-05-03T02:24:03.324Z,15.40
2018-05-03T02:24:38.943Z,15.60
2018-05-03T02:25:14.259Z,14.10
2018-05-03T02:25:49.684Z,12.40
2018-05-03T02:26:25.101Z,14.50
2018-05-03T02:27:00.786Z,14.00
2018-05-03T02:27:36.418Z,14.60
2018-05-03T02:28:11.607Z,15.60
2018-05-03T02:28:46.919Z,14.40
2018-05-03T02:29:22.223Z,15.60
2018-05-03T02:29:57.368Z,14.90
2018-05-03T02:30:32.950Z,15.40
2018-05-03T02:31:08.390Z,12.60
2018-05-03T02:31:43.708Z,11.60
2018-05-03T02:32:19.007Z,12.40
2018-05-03T02:32:54.411Z,14.30
2018-05-03T02:33:29.500Z,13.30
2018-05-03T02:34:04.599Z,15.20
2018-05-03T02:34:39.738Z,16.10
2018-05-03T02:35:15.387Z,16.70
2018-05-03T02:35:51.037Z,14.40
2018-05-03T02:36:26.355Z,14.80
2018-05-03T02:37:01.733Z,16.30
2018-05-03T02:37:37.051Z,17.70
2018-05-03T02:38:12.243Z,14.90
2018-05-03T02:38:47.641Z,15.00
2018-05-03T02:39:22.880Z,12.90
2018-05-03T02:39:58.118Z,12.90
2018-05-03T02:40:33.477Z,13.30
2018-05-03T02:41:08.745Z,15.60
2018-05-03T02:41:44.159Z,15.20
2018-05-03T02:42:19.731Z,14.10
2018-05-03T02:42:55.151Z,13.00
2018-05-03T02:43:30.365Z,13.10
2018-05-03T02:44:05.590Z,13.40
2018-05-03T02:44:41.689Z,12.00
2018-05-03T02:45:17.102Z,12.70
2018-05-03T02:45:52.597Z,15.20
2018-05-03T02:46:27.950Z,12.90
2018-05-03T02:47:03.569Z,12.60
2018-05-03T02:47:38.883Z,14.50
2018-05-03T02:48:14.306Z,11.80
2018-05-03T02:48:49.503Z,14.60
2018-05-03T02:49:25.138Z,16.80
2018-05-03T02:50:00.347Z,12.00
2018-05-03T02:50:36.277Z,14.40
2018-05-03T02:51:11.666Z,15.50
2018-05-03T02:51:46.927Z,13.50
2018-05-03T02:52:22.197Z,15.00
2018-05-03T02:52:57.272Z,15.00
2018-05-03T02:53:32.527Z,12.20
2018-05-03T02:54:07.740Z,14.60
2018-05-03T02:54:42.962Z,15.10
2018-05-03T02:55:18.167Z,15.20
2018-05-03T02:55:53.624Z,15.00
2018-05-03T02:56:28.899Z,13.80
2018-05-03T02:57:04.135Z,13.20
2018-05-03T02:57:39.425Z,12.60
2018-05-03T02:58:14.877Z,13.60
2018-05-03T02:58:50.057Z,13.30
2018-05-03T02:59:25.577Z,12.30
2018-05-03T03:00:00.678Z,14.90
2018-05-03T03:00:36.009Z,13.80
2018-05-03T03:01:11.482Z,13.60
2018-05-03T03:01:47.025Z,14.10
2018-05-03T03:02:22.397Z,13.40
2018-05-03T03:02:57.553Z,15.20
2018-05-03T03:03:33.057Z,15.60
2018-05-03T03:04:08.381Z,12.90
2018-05-03T03:04:43.713Z,14.10
2018-05-03T03:05:18.889Z,13.60
2018-05-03T03:05:54.339Z,15.10
2018-05-03T03:06:29.658Z,14.40
2018-05-03T03:07:05.220Z,13.40
2018-05-03T03:07:41.225Z,15.80
2018-05-03T03:08:16.944Z,14.10
2018-05-03T03:08:52.355Z,14.10
2018-05-03T03:09:27.980Z,14.70
2018-05-03T03:10:03.229Z,14.10
2018-05-03T03:10:38.739Z,14.80
2018-05-03T03:11:13.983Z,18.40
2018-05-03T03:11:49.386Z,16.90
2018-05-03T03:12:24.660Z,17.10
2018-05-03T03:13:00.248Z,15.80
2018-05-03T03:13:35.464Z,16.40
2018-05-03T03:14:10.760Z,18.10
2018-05-03T03:14:45.959Z,19.90
2018-05-03T03:15:21.277Z,16.70
2018-05-03T03:15:56.705Z,15.80
2018-05-03T03:16:31.992Z,18.10
2018-05-03T03:17:07.510Z,19.60
2018-05-03T03:17:43.063Z,18.30
2018-05-03T03:18:18.301Z,20.20
2018-05-03T03:18:53.831Z,18.90
2018-05-03T03:19:29.103Z,17.50
2018-05-03T03:20:04.530Z,15.70
2018-05-03T03:20:39.727Z,15.80
2018-05-03T03:21:14.856Z,19.00
2018-05-03T03:21:49.951Z,19.40
2018-05-03T03:22:25.386Z,17.20
2018-05-03T03:23:00.521Z,17.90
2018-05-03T03:23:36.240Z,18.00
2018-05-03T03:24:11.835Z,16.90
2018-05-03T03:24:47.354Z,19.30
2018-05-03T03:25:22.926Z,20.50
2018-05-03T03:25:58.531Z,17.50
2018-05-03T03:26:33.744Z,14.90
2018-05-03T03:27:09.031Z,19.20
2018-05-03T03:27:44.432Z,19.40
2018-05-03T03:28:19.759Z,18.80
2018-05-03T03:28:55.300Z,19.60
2018-05-03T03:29:30.702Z,17.70
2018-05-03T03:30:06.125Z,17.80
2018-05-03T03:30:44.646Z,18.80
2018-05-03T03:31:20.183Z,20.40
2018-05-03T03:31:55.510Z,18.50
2018-05-03T03:32:30.798Z,18.10
2018-05-03T03:33:06.315Z,17.50
2018-05-03T03:33:41.619Z,19.40
2018-05-03T03:34:16.833Z,17.90
2018-05-03T03:34:51.927Z,18.30
2018-05-03T03:35:27.541Z,16.90
2018-05-03T03:36:02.549Z,18.40
2018-05-03T03:36:38.083Z,21.70
2018-05-03T03:37:13.464Z,19.40
2018-05-03T03:37:48.680Z,18.50
2018-05-03T03:38:23.974Z,18.40
2018-05-03T03:38:59.323Z,19.80
2018-05-03T03:39:36.798Z,20.60
2018-05-03T03:40:12.116Z,19.40
2018-05-03T03:40:48.831Z,18.80
2018-05-03T03:41:24.160Z,18.40
2018-05-03T03:41:59.331Z,18.80
2018-05-03T03:42:34.647Z,16.50
2018-05-03T03:43:10.123Z,17.00
2018-05-03T03:43:45.618Z,19.50
2018-05-03T03:44:21.159Z,18.20
2018-05-03T03:44:56.405Z,16.50
2018-05-03T03:45:31.707Z,17.20
2018-05-03T03:46:06.947Z,16.20
2018-05-03T03:46:42.447Z,20.20
2018-05-03T03:47:17.768Z,21.60
2018-05-03T03:47:53.175Z,17.90
2018-05-03T03:48:28.689Z,19.60
2018-05-03T03:49:04.388Z,20.50
2018-05-03T03:49:39.722Z,19.60
2018-05-03T03:50:14.934Z,18.10
2018-05-03T03:50:50.369Z,17.40
2018-05-03T03:51:26.006Z,20.30
2018-05-03T03:52:01.702Z,24.40
2018-05-03T03:52:37.031Z,25.00
2018-05-03T03:53:12.305Z,23.50
2018-05-03T03:53:47.619Z,22.70
2018-05-03T03:54:23.022Z,20.70
2018-05-03T03:54:58.383Z,19.80
2018-05-03T03:55:33.906Z,20.80
2018-05-03T03:56:09.723Z,21.20
2018-05-03T03:56:44.934Z,20.70
2018-05-03T03:57:20.244Z,22.50
2018-05-03T03:57:55.493Z,24.90
2018-05-03T03:58:30.790Z,27.30
2018-05-03T03:59:06.175Z,21.60
2018-05-03T03:59:41.707Z,21.20
2018-05-03T04:00:17.345Z,27.10
2018-05-03T04:00:54.465Z,29.80
2018-05-03T04:01:29.871Z,22.60
2018-05-03T04:02:05.304Z,21.70
2018-05-03T04:02:41.121Z,22.40
2018-05-03T04:03:16.437Z,23.80
2018-05-03T04:03:51.559Z,24.30
2018-05-03T04:04:26.851Z,24.30
2018-05-03T04:05:02.071Z,24.30
2018-05-03T04:05:37.712Z,24.00
2018-05-03T04:06:13.243Z,25.50
2018-05-03T04:06:48.491Z,24.20
2018-05-03T04:07:23.669Z,22.00
2018-05-03T04:07:58.882Z,23.60
2018-05-03T04:08:34.371Z,25.70
2018-05-03T04:09:09.693Z,24.40
2018-05-03T04:09:45.194Z,24.30
2018-05-03T04:10:20.640Z,25.30
2018-05-03T04:10:56.233Z,23.50
2018-05-03T04:11:31.352Z,24.60
2018-05-03T04:12:06.751Z,27.70
2018-05-03T04:12:42.091Z,25.60
2018-05-03T04:13:17.420Z,23.80
2018-05-03T04:13:52.614Z,25.10
2018-05-03T04:14:28.136Z,26.60
2018-05-03T04:15:03.429Z,26.50
2018-05-03T04:15:38.564Z,25.30
2018-05-03T04:16:13.981Z,27.20
2018-05-03T04:16:49.104Z,26.70
2018-05-03T04:17:24.712Z,25.10
2018-05-03T04:17:59.947Z,24.70
2018-05-03T04:18:35.236Z,26.50
2018-05-03T04:19:10.750Z,26.20
2018-05-03T04:19:46.358Z,28.10
2018-05-03T04:20:21.696Z,26.90
2018-05-03T04:20:56.981Z,25.30
2018-05-03T04:21:32.140Z,26.60
2018-05-03T04:22:07.445Z,27.10
2018-05-03T04:22:42.565Z,30.90
2018-05-03T04:23:17.658Z,32.60
2018-05-03T04:23:53.163Z,28.40
2018-05-03T04:24:28.652Z,29.70
2018-05-03T04:25:03.971Z,29.20
2018-05-03T04:25:40.096Z,29.90
2018-05-03T04:26:15.385Z,29.00
2018-05-03T04:26:50.847Z,30.20
2018-05-03T04:27:26.380Z,32.30
2018-05-03T04:28:03.703Z,31.70
2018-05-03T04:28:39.322Z,30.20
2018-05-03T04:29:14.554Z,29.00
2018-05-03T04:29:50.074Z,30.30
2018-05-03T04:30:25.480Z,30.50
2018-05-03T04:31:00.981Z,32.60
2018-05-03T04:31:36.500Z,30.50
2018-05-03T04:32:11.864Z,31.00
2018-05-03T04:32:47.275Z,31.30
2018-05-03T04:33:22.721Z,30.10
2018-05-03T04:33:58.116Z,32.00
2018-05-03T04:34:33.282Z,33.20
2018-05-03T04:35:08.427Z,32.70
2018-05-03T04:35:44.677Z,33.40
2018-05-03T04:36:20.077Z,26.90
2018-05-03T04:36:55.530Z,27.40
2018-05-03T04:37:30.708Z,31.30
2018-05-03T04:38:06.034Z,33.00
2018-05-03T04:38:41.577Z,33.00
2018-05-03T04:39:16.844Z,30.60
2018-05-03T04:39:52.354Z,28.90
2018-05-03T04:40:27.567Z,27.60
2018-05-03T04:41:02.975Z,32.80
2018-05-03T04:41:38.307Z,31.10
2018-05-03T04:42:13.917Z,29.90
2018-05-03T04:42:49.239Z,32.90
2018-05-03T04:43:24.644Z,28.30
2018-05-03T04:43:59.775Z,29.00
2018-05-03T04:44:35.169Z,29.40
2018-05-03T04:45:10.374Z,27.80
2018-05-03T04:45:47.100Z,25.60
2018-05-03T04:46:22.500Z,28.40
2018-05-03T04:46:57.877Z,30.00
2018-05-03T04:47:32.901Z,30.50
2018-05-03T04:48:08.237Z,28.40
2018-05-03T04:48:43.506Z,27.20
2018-05-03T04:49:18.725Z,28.10
2018-05-03T04:49:53.961Z,31.40
2018-05-03T04:50:29.379Z,30.20
2018-05-03T04:51:04.652Z,24.70
2018-05-03T04:51:39.767Z,25.00
2018-05-03T04:52:15.246Z,22.50
2018-05-03T04:52:50.591Z,23.70
2018-05-03T04:53:25.947Z,24.60
2018-05-03T04:54:01.325Z,28.00
2018-05-03T04:54:36.545Z,30.90
2018-05-03T04:55:11.847Z,30.10
2018-05-03T04:55:47.378Z,26.50
2018-05-03T04:56:22.791Z,26.20
2018-05-03T04:56:58.295Z,27.70
2018-05-03T04:57:33.692Z,23.40
2018-05-03T04:58:09.007Z,22.50
2018-05-03T04:58:44.315Z,22.60
2018-05-03T04:59:19.547Z,22.90
2018-05-03T04:59:54.874Z,24.00
2018-05-03T05:00:29.987Z,24.30
2018-05-03T05:01:05.481Z,23.70
2018-05-03T05:01:40.879Z,21.30
2018-05-03T05:02:16.006Z,21.10
2018-05-03T05:02:51.309Z,20.90
2018-05-03T05:03:26.633Z,17.50
2018-05-03T05:04:02.089Z,20.30
2018-05-03T05:04:37.880Z,21.50
2018-05-03T05:05:13.605Z,20.80
2018-05-03T05:05:49.177Z,24.20
2018-05-03T05:06:24.700Z,22.30
2018-05-03T05:06:59.990Z,22.10
2018-05-03T05:07:35.223Z,22.30
2018-05-03T05:08:10.716Z,21.60
2018-05-03T05:08:45.975Z,20.60
2018-05-03T05:09:21.482Z,20.60
2018-05-03T05:09:56.889Z,19.20
2018-05-03T05:10:32.092Z,19.50
2018-05-03T05:11:07.300Z,18.90
2018-05-03T05:11:42.442Z,18.80
2018-05-03T05:12:18.073Z,18.60
2018-05-03T05:12:53.555Z,20.50
2018-05-03T05:13:29.180Z,15.10
2018-05-03T05:14:04.496Z,20.60
2018-05-03T05:14:39.951Z,22.00
2018-05-03T05:15:15.571Z,21.80
2018-05-03T05:15:50.983Z,23.30
2018-05-03T05:16:26.312Z,22.40
2018-05-03T05:17:01.597Z,17.80
2018-05-03T05:17:37.106Z,19.20
2018-05-03T05:18:12.393Z,19.80
2018-05-03T05:18:47.515Z,21.00
2018-05-03T05:19:22.820Z,17.70
2018-05-03T05:19:58.248Z,17.50
2018-05-03T05:20:33.863Z,19.80
2018-05-03T05:21:09.261Z,20.20
2018-05-03T05:21:44.697Z,16.20
2018-05-03T05:22:20.126Z,17.20
2018-05-03T05:22:55.246Z,17.90
2018-05-03T05:23:30.565Z,15.10
2018-05-03T05:24:05.848Z,14.60
2018-05-03T05:24:41.656Z,15.70
2018-05-03T05:25:17.209Z,18.80
2018-05-03T05:25:52.512Z,18.60
2018-05-03T05:26:27.764Z,15.40
2018-05-03T05:27:02.956Z,14.60
2018-05-03T05:27:39.656Z,15.90
2018-05-03T05:28:15.247Z,17.70
2018-05-03T05:28:50.782Z,17.20
2018-05-03T05:29:25.791Z,14.30
2018-05-03T05:30:01.122Z,14.00
2018-05-03T05:30:37.044Z,15.40
2018-05-03T05:31:11.961Z,26.30
2018-05-03T05:31:47.309Z,27.00
2018-05-03T05:32:22.724Z,17.50
2018-05-03T05:32:58.056Z,15.80
2018-05-03T05:33:33.143Z,17.20
2018-05-03T05:34:08.693Z,15.50
2018-05-03T05:34:44.402Z,15.40
2018-05-03T05:35:19.969Z,15.10
2018-05-03T05:35:55.525Z,13.50
2018-05-03T05:36:30.902Z,14.60
2018-05-03T05:37:05.998Z,13.40
2018-05-03T05:37:41.476Z,15.50
2018-05-03T05:38:16.797Z,16.30
2018-05-03T05:38:52.018Z,14.10
2018-05-03T05:39:27.571Z,15.40
2018-05-03T05:40:02.658Z,15.10
2018-05-03T05:40:39.374Z,15.70
2018-05-03T05:41:14.507Z,16.20
2018-05-03T05:41:51.230Z,13.60
2018-05-03T05:42:26.487Z,14.60
2018-05-03T05:43:01.883Z,17.10
2018-05-03T05:43:37.670Z,14.60
2018-05-03T05:44:12.814Z,11.60
2018-05-03T05:44:50.380Z,11.80
2018-05-03T05:45:25.870Z,11.80
2018-05-03T05:46:01.088Z,15.10
2018-05-03T05:46:38.667Z,14.40
2018-05-03T05:47:14.084Z,14.90
2018-05-03T05:47:49.492Z,14.70
2018-05-03T05:48:24.674Z,20.90
2018-05-03T05:49:00.010Z,18.10
2018-05-03T05:49:35.396Z,10.70
2018-05-03T05:50:11.007Z,13.10
2018-05-03T05:50:46.905Z,13.30
2018-05-03T05:51:22.087Z,17.70
2018-05-03T05:51:57.427Z,14.50
2018-05-03T05:52:32.749Z,14.50
2018-05-03T05:53:08.073Z,13.80
2018-05-03T05:53:43.473Z,12.20
2018-05-03T05:54:18.792Z,13.50
2018-05-03T05:54:54.101Z,11.20
2018-05-03T05:55:29.543Z,12.00
2018-05-03T05:56:04.945Z,12.50
2018-05-03T05:56:40.412Z,10.20
2018-05-03T05:57:15.619Z,11.90
2018-05-03T05:57:51.012Z,14.40
2018-05-03T05:58:26.193Z,13.70
2018-05-03T05:59:01.419Z,12.80
2018-05-03T05:59:36.526Z,12.10
2018-05-03T06:00:11.639Z,15.20
2018-05-03T06:00:52.253Z,17.10
2018-05-03T06:01:27.528Z,11.50
2018-05-03T06:02:02.757Z,12.60
2018-05-03T06:02:39.222Z,17.00
2018-05-03T06:03:14.655Z,12.50
2018-05-03T06:03:50.447Z,7.90
2018-05-03T06:04:25.671Z,9.90
2018-05-03T06:05:01.093Z,12.70
2018-05-03T06:05:36.701Z,12.40
2018-05-03T06:06:11.822Z,15.30
2018-05-03T06:06:47.140Z,12.50
2018-05-03T06:07:22.319Z,12.50
2018-05-03T06:07:57.879Z,11.50
2018-05-03T06:08:33.282Z,11.60
2018-05-03T06:09:08.700Z,14.30
2018-05-03T06:09:44.099Z,14.70
2018-05-03T06:10:19.455Z,12.00
2018-05-03T06:10:54.819Z,11.90
2018-05-03T06:11:30.108Z,12.20
2018-05-03T06:12:05.611Z,12.80
2018-05-03T06:12:41.842Z,10.80
2018-05-03T06:13:17.181Z,15.60
2018-05-03T06:13:52.485Z,14.80
2018-05-03T06:14:28.026Z,10.20
2018-05-03T06:15:03.305Z,8.60
2018-05-03T06:15:38.913Z,10.60
2018-05-03T06:16:14.321Z,12.10
2018-05-03T06:16:50.058Z,13.30
2018-05-03T06:17:25.690Z,12.20
2018-05-03T06:18:01.015Z,10.30
2018-05-03T06:18:36.696Z,14.30
2018-05-03T06:19:11.993Z,10.70
2018-05-03T06:19:47.342Z,9.50
2018-05-03T06:20:22.725Z,10.90
2018-05-03T06:20:58.133Z,14.50
2018-05-03T06:21:33.538Z,12.00
2018-05-03T06:22:09.023Z,11.20
2018-05-03T06:22:44.561Z,12.10
2018-05-03T06:23:19.694Z,12.70
2018-05-03T06:23:54.971Z,10.20
2018-05-03T06:24:30.201Z,10.20
2018-05-03T06:25:05.440Z,8.30
2018-05-03T06:25:41.324Z,10.60
2018-05-03T06:26:16.662Z,12.40
2018-05-03T06:26:52.156Z,10.80
2018-05-03T06:27:28.378Z,6.20
2018-05-03T06:28:03.851Z,6.40
2018-05-03T06:28:39.304Z,9.50
2018-05-03T06:29:14.835Z,10.80
2018-05-03T06:29:50.281Z,10.00
2018-05-03T06:30:25.905Z,8.90
2018-05-03T06:31:01.306Z,8.20
2018-05-03T06:31:39.064Z,9.00
2018-05-03T06:32:14.375Z,8.80
2018-05-03T06:32:49.585Z,8.50
2018-05-03T06:33:27.596Z,13.30
2018-05-03T06:34:03.048Z,11.60
2018-05-03T06:34:38.558Z,9.90
2018-05-03T06:35:14.202Z,9.20
2018-05-03T06:35:49.596Z,7.60
2018-05-03T06:36:25.006Z,8.60
2018-05-03T06:37:00.440Z,12.30
2018-05-03T06:37:35.959Z,12.80
2018-05-03T06:38:11.372Z,7.10
2018-05-03T06:38:46.487Z,9.60
2018-05-03T06:39:21.948Z,12.70
2018-05-03T06:39:57.766Z,11.00
2018-05-03T06:40:32.981Z,11.80
2018-05-03T06:41:08.264Z,10.90
2018-05-03T06:41:43.593Z,8.30
2018-05-03T06:42:18.880Z,11.20
2018-05-03T06:42:54.435Z,14.40
2018-05-03T06:43:29.504Z,9.50
2018-05-03T06:44:04.830Z,9.30
2018-05-03T06:44:41.472Z,9.70
2018-05-03T06:45:17.006Z,10.90
2018-05-03T06:45:52.083Z,7.90
2018-05-03T06:46:27.188Z,8.80
2018-05-03T06:47:02.744Z,7.30
2018-05-03T06:47:38.248Z,8.30
2018-05-03T06:48:13.677Z,9.40
2018-05-03T06:48:49.182Z,8.60
2018-05-03T06:49:24.717Z,8.70
2018-05-03T06:50:00.439Z,7.70
2018-05-03T06:50:36.279Z,6.70
2018-05-03T06:51:11.365Z,6.70
2018-05-03T06:51:47.601Z,9.20
2018-05-03T06:52:23.019Z,9.90
2018-05-03T06:52:58.567Z,12.00
2018-05-03T06:53:33.868Z,13.60
2018-05-03T06:54:09.296Z,11.30
2018-05-03T06:54:44.613Z,7.80
2018-05-03T06:55:20.050Z,8.60
2018-05-03T06:55:55.974Z,10.90
2018-05-03T06:56:31.206Z,8.00
2018-05-03T06:57:08.435Z,9.70
2018-05-03T06:57:46.927Z,11.20
2018-05-03T06:58:22.457Z,9.50
2018-05-03T06:58:57.578Z,16.00
2018-05-03T06:59:33.102Z,12.90
2018-05-03T07:00:08.312Z,7.90
2018-05-03T07:00:47.662Z,7.20
2018-05-03T07:01:23.051Z,7.10
2018-05-03T07:01:58.455Z,9.60
2018-05-03T07:02:33.733Z,10.10
2018-05-03T07:03:09.074Z,7.70
2018-05-03T07:03:44.352Z,6.20
2018-05-03T07:04:19.502Z,7.60
2018-05-03T07:04:55.319Z,11.90
2018-05-03T07:05:30.752Z,9.10
2018-05-03T07:06:06.103Z,9.10
2018-05-03T07:06:41.310Z,9.70
2018-05-03T07:07:16.665Z,9.20
2018-05-03T07:07:52.022Z,7.30
2018-05-03T07:08:27.400Z,7.10
2018-05-03T07:09:03.109Z,9.90
2018-05-03T07:09:38.419Z,9.10
2018-05-03T07:10:13.765Z,6.20
2018-05-03T07:10:49.365Z,9.20
2018-05-03T07:11:24.819Z,9.80
2018-05-03T07:12:00.279Z,6.10
2018-05-03T07:12:35.613Z,10.40
2018-05-03T07:13:12.106Z,10.30
2018-05-03T07:13:47.228Z,7.70
2018-05-03T07:14:22.441Z,10.40
2018-05-03T07:14:57.662Z,9.70
2018-05-03T07:15:33.173Z,7.90
2018-05-03T07:16:08.399Z,8.70
2018-05-03T07:16:43.752Z,7.80
2018-05-03T07:17:18.883Z,9.30
2018-05-03T07:17:54.213Z,9.70
2018-05-03T07:18:29.449Z,7.80
2018-05-03T07:19:05.093Z,6.20
2018-05-03T07:19:40.677Z,8.20
2018-05-03T07:20:16.850Z,6.40
2018-05-03T07:20:52.543Z,7.00
2018-05-03T07:21:27.773Z,8.80
2018-05-03T07:22:03.212Z,9.80
2018-05-03T07:22:39.259Z,8.60
2018-05-03T07:23:14.904Z,8.80
2018-05-03T07:23:50.290Z,6.10
2018-05-03T07:24:25.471Z,9.30
2018-05-03T07:25:00.602Z,9.50
2018-05-03T07:25:40.822Z,6.70
2018-05-03T07:26:16.221Z,9.60
2018-05-03T07:26:51.569Z,9.40
2018-05-03T07:27:26.632Z,6.90
2018-05-03T07:28:02.176Z,6.90
2018-05-03T07:28:37.731Z,8.40
2018-05-03T07:29:12.942Z,4.70
2018-05-03T07:29:48.553Z,7.10
2018-05-03T07:30:23.728Z,6.70
2018-05-03T07:30:59.157Z,11.40
2018-05-03T07:31:34.751Z,12.00
2018-05-03T07:32:10.109Z,9.20
2018-05-03T07:32:45.734Z,6.40
2018-05-03T07:33:21.061Z,6.90
2018-05-03T07:33:56.489Z,7.10
2018-05-03T07:34:31.997Z,9.00
2018-05-03T07:35:07.122Z,9.20
2018-05-03T07:35:42.623Z,10.10
2018-05-03T07:36:17.788Z,8.50
2018-05-03T07:36:53.397Z,6.90
2018-05-03T07:37:28.548Z,8.30
2018-05-03T07:38:03.944Z,6.30
2018-05-03T07:38:39.268Z,6.20
2018-05-03T07:39:14.473Z,5.90
2018-05-03T07:39:50.304Z,5.70
2018-05-03T07:40:25.937Z,6.60
2018-05-03T07:41:01.499Z,6.90
2018-05-03T07:41:39.708Z,8.90